createdAt,value
2022-11-22T00:00:05.277Z,99553.28
2022-11-22T00:02:32.877Z,99551.31
2022-11-22T00:04:59.750Z,99545.34
2022-11-22T00:07:26.657Z,99537.47
2022-11-22T00:09:53.567Z,99539.53
2022-11-22T00:12:20.391Z,99540.31
2022-11-22T00:14:47.197Z,99534.34
2022-11-22T00:17:14.064Z,99511.88
2022-11-22T00:20:01.432Z,99510.69
2022-11-22T00:22:44.772Z,99507.50
2022-11-22T00:25:32.428Z,99513.81
2022-11-22T00:28:12.995Z,99506.69
2022-11-22T00:31:00.462Z,99496.38
2022-11-22T00:33:40.939Z,99494.66
2022-11-22T00:36:07.746Z,99484.13
2022-11-22T00:38:34.643Z,99467.84
2022-11-22T00:41:01.483Z,99465.03
2022-11-22T00:43:28.228Z,99463.34
2022-11-22T00:45:55.002Z,99464.50
2022-11-22T00:48:42.429Z,99467.03
2022-11-22T00:51:43.507Z,99448.91
2022-11-22T00:54:23.894Z,99445.25
2022-11-22T00:56:50.594Z,99438.53
2022-11-22T00:59:17.375Z,99435.00
2022-11-22T01:01:44.251Z,99421.94
2022-11-22T01:04:11.116Z,99421.06
2022-11-22T01:06:37.970Z,99417.66
2022-11-22T01:09:04.922Z,99410.75
2022-11-22T01:11:31.670Z,99403.03
2022-11-22T01:13:58.505Z,99394.38
2022-11-22T01:16:25.241Z,99388.38
2022-11-22T01:18:52.032Z,99384.94
2022-11-22T01:21:39.482Z,99375.47
2022-11-22T01:24:40.436Z,99378.88
2022-11-22T01:27:41.455Z,99375.47
2022-11-22T01:30:42.474Z,99364.13
2022-11-22T01:33:23.194Z,99351.06
2022-11-22T01:35:49.968Z,99353.91
2022-11-22T01:38:16.848Z,99347.75
2022-11-22T01:40:43.584Z,99345.09
2022-11-22T01:43:21.193Z,99337.44
2022-11-22T01:45:52.696Z,99332.91
2022-11-22T01:48:22.615Z,99320.91
2022-11-22T01:50:51.832Z,99318.28
2022-11-22T01:53:47.466Z,99314.63
2022-11-22T01:56:50.471Z,99299.97
2022-11-22T01:59:32.983Z,99288.94
2022-11-22T02:02:00.249Z,99275.81
2022-11-22T02:04:29.025Z,99266.34
2022-11-22T02:06:55.750Z,99264.34
2022-11-22T02:09:22.957Z,99263.53
2022-11-22T02:11:52.121Z,99259.22
2022-11-22T02:14:21.095Z,99252.28
2022-11-22T02:16:48.485Z,99241.03
2022-11-22T02:19:18.754Z,99233.31
2022-11-22T02:21:48.454Z,99220.09
2022-11-22T02:24:30.481Z,99225.50
2022-11-22T02:27:04.742Z,99223.72
2022-11-22T02:29:32.512Z,99211.44
2022-11-22T02:32:19.486Z,99210.44
2022-11-22T02:35:26.677Z,99200.69
2022-11-22T02:38:16.539Z,99203.66
2022-11-22T02:41:03.757Z,99186.53
2022-11-22T02:43:33.089Z,99188.19
2022-11-22T02:46:09.059Z,99178.75
2022-11-22T02:48:41.014Z,99167.69
2022-11-22T02:51:07.808Z,99176.34
2022-11-22T02:53:34.677Z,99174.69
2022-11-22T02:56:01.448Z,99169.56
2022-11-22T02:58:28.659Z,99173.88
2022-11-22T03:00:55.528Z,99168.59
2022-11-22T03:03:22.362Z,99165.06
2022-11-22T03:05:49.150Z,99157.34
2022-11-22T03:08:15.954Z,99159.16
2022-11-22T03:10:42.740Z,99155.44
2022-11-22T03:13:09.544Z,99154.44
2022-11-22T03:15:56.504Z,99150.09
2022-11-22T03:18:57.511Z,99138.50
2022-11-22T03:21:38.644Z,99120.59
2022-11-22T03:24:26.489Z,99114.41
2022-11-22T03:27:06.979Z,99102.81
2022-11-22T03:29:33.766Z,99093.34
2022-11-22T03:32:20.529Z,99087.56
2022-11-22T03:35:01.092Z,99086.06
2022-11-22T03:37:28.157Z,99095.72
2022-11-22T03:39:54.848Z,99098.13
2022-11-22T03:42:22.282Z,99098.28
2022-11-22T03:44:49.190Z,99107.00
2022-11-22T03:47:16.209Z,99111.31
2022-11-22T03:49:43.324Z,99105.44
2022-11-22T03:52:30.529Z,99104.75
2022-11-22T03:55:11.012Z,99094.53
2022-11-22T03:57:37.836Z,99082.69
2022-11-22T04:00:05.525Z,99089.50
2022-11-22T04:02:39.192Z,99071.78
2022-11-22T04:05:06.289Z,99065.13
2022-11-22T04:07:33.183Z,99074.53
2022-11-22T04:10:00.056Z,99066.72
2022-11-22T04:12:26.913Z,99070.16
2022-11-22T04:15:08.971Z,99063.19
2022-11-22T04:17:44.800Z,99059.69
2022-11-22T04:20:33.333Z,99042.63
2022-11-22T04:23:01.876Z,99056.88
2022-11-22T04:25:49.541Z,99056.13
2022-11-22T04:29:09.109Z,99051.72
2022-11-22T04:32:28.569Z,99052.81
2022-11-22T04:35:09.082Z,99047.75
2022-11-22T04:37:35.824Z,99046.94
2022-11-22T04:40:04.307Z,99048.69
2022-11-22T04:42:49.782Z,99042.88
2022-11-22T04:45:16.627Z,99038.44
2022-11-22T04:48:01.934Z,99034.78
2022-11-22T04:50:48.010Z,99040.09
2022-11-22T04:53:15.327Z,99033.91
2022-11-22T04:56:02.543Z,99040.34
2022-11-22T04:58:43.308Z,99041.75
2022-11-22T05:01:10.798Z,99032.56
2022-11-22T05:03:37.841Z,99044.88
2022-11-22T05:06:05.422Z,99044.28
2022-11-22T05:08:32.829Z,99047.88
2022-11-22T05:10:59.978Z,99041.91
2022-11-22T05:13:28.600Z,99041.00
2022-11-22T05:15:56.030Z,99047.16
2022-11-22T05:18:23.450Z,99048.97
2022-11-22T05:20:50.259Z,99045.63
2022-11-22T05:23:55.572Z,99043.97
2022-11-22T05:26:56.568Z,99041.38
2022-11-22T05:29:37.188Z,99030.66
2022-11-22T05:32:24.585Z,99018.06
2022-11-22T05:35:05.161Z,99013.41
2022-11-22T05:37:32.002Z,99008.16
2022-11-22T05:39:58.916Z,99008.94
2022-11-22T05:42:25.687Z,99006.34
2022-11-22T05:44:52.654Z,99006.38
2022-11-22T05:47:19.418Z,99009.06
2022-11-22T05:49:46.214Z,98992.56
2022-11-22T05:52:13.327Z,98996.03
2022-11-22T05:54:40.175Z,98991.72
2022-11-22T05:57:07.248Z,99005.50
2022-11-22T05:59:34.202Z,99000.38
2022-11-22T06:02:01.289Z,98992.56
2022-11-22T06:04:28.091Z,98990.84
2022-11-22T06:06:54.928Z,98996.16
2022-11-22T06:09:22.896Z,98985.78
2022-11-22T06:11:49.803Z,98993.59
2022-11-22T06:14:42.798Z,98990.19
2022-11-22T06:17:43.594Z,98991.06
2022-11-22T06:20:25.364Z,98980.63
2022-11-22T06:22:52.360Z,98986.66
2022-11-22T06:25:39.648Z,98996.28
2022-11-22T06:28:19.962Z,98992.81
2022-11-22T06:31:06.629Z,98993.69
2022-11-22T06:34:07.624Z,98988.50
2022-11-22T06:36:48.130Z,98970.38
2022-11-22T06:39:14.901Z,98985.91
2022-11-22T06:41:41.676Z,98974.75
2022-11-22T06:44:09.680Z,98984.28
2022-11-22T06:46:56.630Z,98986.88
2022-11-22T06:49:57.657Z,98987.75
2022-11-22T06:52:50.478Z,98992.09
2022-11-22T06:55:48.544Z,98995.53
2022-11-22T06:58:04.780Z,98996.41
2022-11-22T07:00:31.772Z,98931.44
2022-11-22T07:02:58.832Z,98993.81
2022-11-22T07:05:26.430Z,98992.84
2022-11-22T07:07:54.970Z,98996.34
2022-11-22T07:10:23.508Z,98997.09
2022-11-22T07:12:50.732Z,98999.69
2022-11-22T07:15:37.631Z,98989.25
2022-11-22T07:18:18.082Z,98982.25
2022-11-22T07:21:09.438Z,98991.75
2022-11-22T07:24:12.646Z,98980.47
2022-11-22T07:27:13.649Z,98975.28
2022-11-22T07:30:14.661Z,98983.06
2022-11-22T07:32:57.790Z,98985.66
2022-11-22T07:35:24.628Z,98986.50
2022-11-22T07:37:51.578Z,98983.91
2022-11-22T07:40:18.465Z,98987.38
2022-11-22T07:42:45.274Z,98991.69
2022-11-22T07:45:12.392Z,98989.91
2022-11-22T07:47:39.212Z,98982.94
2022-11-22T07:50:06.535Z,98978.66
2022-11-22T07:52:53.677Z,98983.84
2022-11-22T07:55:54.667Z,98989.84
2022-11-22T07:58:35.227Z,98982.06
2022-11-22T08:01:09.239Z,98989.84
2022-11-22T08:03:36.770Z,98989.78
2022-11-22T08:06:04.319Z,98984.59
2022-11-22T08:08:31.317Z,98982.81
2022-11-22T08:10:58.169Z,98974.94
2022-11-22T08:13:45.737Z,98980.13
2022-11-22T08:16:46.674Z,98983.53
2022-11-22T08:19:28.149Z,98986.13
2022-11-22T08:21:58.472Z,98993.13
2022-11-22T08:24:45.698Z,98984.50
2022-11-22T08:27:26.132Z,98980.94
2022-11-22T08:30:13.695Z,98989.59
2022-11-22T08:32:59.375Z,98983.59
2022-11-22T08:35:26.337Z,98975.81
2022-11-22T08:38:13.718Z,98968.03
2022-11-22T08:40:54.393Z,98943.72
2022-11-22T08:43:21.352Z,98948.06
2022-11-22T08:46:09.678Z,98942.97
2022-11-22T08:49:12.719Z,98946.34
2022-11-22T08:51:53.111Z,98942.81
2022-11-22T08:54:19.931Z,98941.09
2022-11-22T08:56:46.737Z,98932.44
2022-11-22T08:59:13.757Z,98923.03
2022-11-22T09:01:40.757Z,98928.16
2022-11-22T09:04:07.543Z,98926.44
2022-11-22T09:09:41.724Z,98920.44
2022-11-22T09:12:42.731Z,98903.31
2022-11-22T09:15:23.209Z,98900.53
2022-11-22T09:17:50.041Z,98923.91
2022-11-22T09:20:16.980Z,98922.97
2022-11-22T09:23:03.755Z,98915.31
2022-11-22T09:26:14.799Z,98910.06
2022-11-22T09:28:56.305Z,98904.19
2022-11-22T09:31:44.778Z,98890.28
2022-11-22T09:34:25.430Z,98884.34
2022-11-22T09:36:52.454Z,98887.97
2022-11-22T09:39:19.403Z,98879.38
2022-11-22T09:42:26.718Z,98882.78
2022-11-22T09:45:16.598Z,98876.00
2022-11-22T09:47:58.831Z,98879.38
2022-11-22T09:50:44.725Z,98874.34
2022-11-22T09:53:34.761Z,98874.53
2022-11-22T09:56:03.836Z,98876.31
2022-11-22T09:58:33.469Z,98879.88
2022-11-22T10:01:09.198Z,98878.22
2022-11-22T10:03:56.523Z,98880.03
2022-11-22T10:06:26.473Z,98873.88
2022-11-22T10:08:59.687Z,98872.91
2022-11-22T10:11:36.049Z,98869.38
2022-11-22T10:14:42.715Z,98866.94
2022-11-22T10:17:52.744Z,98872.25
2022-11-22T10:20:35.711Z,98869.66
2022-11-22T10:23:03.162Z,98864.34
2022-11-22T10:25:50.814Z,98869.66
2022-11-22T10:28:31.174Z,98861.97
2022-11-22T10:31:17.754Z,98870.19
2022-11-22T10:33:58.252Z,98874.63
2022-11-22T10:36:37.113Z,98861.59
2022-11-22T10:39:05.101Z,98871.34
2022-11-22T10:41:31.940Z,98868.78
2022-11-22T10:44:18.744Z,98869.59
2022-11-22T10:47:22.827Z,98859.38
2022-11-22T10:50:22.380Z,98854.88
2022-11-22T10:52:52.177Z,98859.19
2022-11-22T10:55:39.237Z,98864.19
2022-11-22T10:58:14.114Z,98855.78
2022-11-22T11:00:44.605Z,98840.75
2022-11-22T11:03:20.590Z,98839.69
2022-11-22T11:06:43.453Z,98843.28
2022-11-22T11:12:10.833Z,98836.78
2022-11-22T11:14:44.249Z,98836.00
2022-11-22T11:17:15.249Z,98835.22
2022-11-22T11:20:03.834Z,98840.47
2022-11-22T11:23:14.815Z,98840.44
2022-11-22T11:26:47.782Z,98834.50
2022-11-22T11:29:37.404Z,98833.38
2022-11-22T11:32:34.805Z,98837.53
2022-11-22T11:35:16.059Z,98839.34
2022-11-22T11:37:42.974Z,98837.69
2022-11-22T11:40:28.951Z,98828.94
2022-11-22T11:43:16.919Z,98834.28
2022-11-22T11:45:44.579Z,98830.91
2022-11-22T11:48:49.814Z,98825.69
2022-11-22T11:51:51.993Z,98830.16
2022-11-22T11:54:44.838Z,98832.88
2022-11-22T11:57:35.970Z,98826.59
2022-11-22T12:00:06.501Z,98831.09
2022-11-22T12:02:41.322Z,98837.06
2022-11-22T12:05:14.480Z,98831.91
2022-11-22T12:07:44.668Z,98832.84
2022-11-22T12:10:33.632Z,98835.44
2022-11-22T12:13:04.814Z,98840.47
2022-11-22T12:15:47.877Z,98845.94
2022-11-22T12:18:27.270Z,98838.78
2022-11-22T12:21:24.921Z,98842.59
2022-11-22T12:27:46.840Z,98841.75
2022-11-22T12:30:47.815Z,98837.53
2022-11-22T12:33:31.590Z,98841.84
2022-11-22T12:35:59.170Z,98845.50
2022-11-22T12:38:29.393Z,98840.28
2022-11-22T12:40:58.459Z,98846.44
2022-11-22T12:43:46.050Z,98840.22
2022-11-22T12:46:33.502Z,98842.06
2022-11-22T12:49:07.546Z,98849.09
2022-11-22T12:51:42.318Z,98843.84
2022-11-22T12:54:29.806Z,98842.78
2022-11-22T12:56:59.967Z,98843.72
2022-11-22T12:59:44.940Z,98854.22
2022-11-22T13:02:15.109Z,98852.59
2022-11-22T13:04:50.793Z,98849.84
2022-11-22T13:07:22.230Z,98857.59
2022-11-22T13:09:51.650Z,98857.00
2022-11-22T13:12:30.880Z,98857.03
2022-11-22T13:14:59.045Z,98858.84
2022-11-22T13:17:27.530Z,98863.34
2022-11-22T13:19:57.373Z,98867.66
2022-11-22T13:22:36.018Z,98874.53
2022-11-22T13:25:41.833Z,98883.44
2022-11-22T13:28:46.814Z,98886.00
2022-11-22T13:31:47.868Z,98889.44
2022-11-22T13:34:49.831Z,98889.22
2022-11-22T13:37:31.497Z,98888.44
2022-11-22T13:40:08.994Z,98894.66
2022-11-22T13:42:35.878Z,98897.41
2022-11-22T13:45:34.936Z,98902.78
2022-11-22T13:48:53.995Z,98905.25
2022-11-22T13:52:05.953Z,98918.13
2022-11-22T13:55:11.074Z,98923.41
2022-11-22T13:57:55.823Z,98923.44
2022-11-22T14:00:22.886Z,98929.56
2022-11-22T14:02:55.331Z,98917.34
2022-11-22T14:05:26.146Z,98932.09
2022-11-22T14:07:54.245Z,98926.78
2022-11-22T14:10:24.621Z,98937.03
2022-11-22T14:13:02.717Z,98942.97
2022-11-22T14:15:47.196Z,98939.66
2022-11-22T14:18:14.221Z,98950.84
2022-11-22T14:20:50.894Z,98943.91
2022-11-22T14:23:38.554Z,98950.88
2022-11-22T14:26:48.378Z,98969.81
2022-11-22T14:29:55.265Z,98974.19
2022-11-22T14:33:32.121Z,98978.50
2022-11-22T14:36:33.258Z,98972.25
2022-11-22T14:39:45.244Z,98974.91
2022-11-22T14:42:47.309Z,98981.88
2022-11-22T14:45:38.927Z,98993.81
2022-11-22T14:48:44.346Z,98994.63
2022-11-22T14:51:32.273Z,98986.69
2022-11-22T14:54:04.365Z,98996.31
2022-11-22T14:56:51.995Z,98991.91
2022-11-22T15:00:05.218Z,98996.06
2022-11-22T15:03:22.027Z,99001.25
2022-11-22T15:09:17.452Z,99001.34
2022-11-22T15:09:42.165Z,99003.03
2022-11-22T15:12:10.772Z,99012.38
2022-11-22T15:14:56.846Z,99008.16
2022-11-22T15:57:26.575Z,99015.53
2022-11-22T15:59:54.921Z,99011.66
2022-11-22T16:02:24.550Z,99017.72
2022-11-22T16:06:08.553Z,99016.09
2022-11-22T16:07:58.349Z,99016.97
2022-11-22T16:11:02.945Z,99026.50
2022-11-22T16:13:44.093Z,99024.88
2022-11-22T16:16:12.853Z,99019.63
2022-11-22T16:18:43.555Z,99034.44
2022-11-22T16:21:35.509Z,99039.72
2022-11-22T16:24:40.944Z,99046.53
2022-11-22T16:27:22.180Z,99041.97
2022-11-22T16:30:09.340Z,99040.25
2022-11-22T16:33:10.462Z,99057.69
2022-11-22T16:36:11.444Z,99056.00
2022-11-22T16:38:39.110Z,99060.34
2022-11-22T16:41:36.060Z,99068.22
2022-11-22T16:44:18.392Z,99067.44
2022-11-22T16:46:45.501Z,99063.94
2022-11-22T16:49:17.449Z,99063.16
2022-11-22T16:51:52.177Z,99067.25
2022-11-22T16:54:21.680Z,99078.03
2022-11-22T16:56:50.234Z,99084.09
2022-11-22T16:59:18.184Z,99073.06
2022-11-22T17:01:46.265Z,99086.13
2022-11-22T17:04:24.085Z,99092.19
2022-11-22T17:06:51.573Z,99080.88
2022-11-22T17:09:39.011Z,99080.00
2022-11-22T17:12:40.971Z,99098.19
2022-11-22T17:15:24.656Z,99097.31
2022-11-22T17:17:52.218Z,99097.63
2022-11-22T17:20:19.625Z,99103.50
2022-11-22T17:22:46.690Z,99101.63
2022-11-22T17:25:34.333Z,99112.00
2022-11-22T17:28:15.226Z,99109.41
2022-11-22T17:31:02.184Z,99104.13
2022-11-22T17:34:07.036Z,99091.19
2022-11-22T17:36:47.742Z,99105.88
2022-11-22T17:39:14.774Z,99106.75
2022-11-22T17:41:41.612Z,99109.41
2022-11-22T17:44:14.965Z,99109.47
2022-11-22T17:46:42.004Z,99098.88
2022-11-22T17:49:15.362Z,99107.59
2022-11-22T17:51:43.077Z,99100.75
2022-11-22T17:54:10.203Z,99091.09
2022-11-22T17:56:37.708Z,99100.75
2022-11-22T17:59:25.227Z,99091.97
2022-11-22T18:02:05.466Z,99082.44
2022-11-22T18:04:32.666Z,99091.91
2022-11-22T18:07:20.020Z,99094.63
2022-11-22T18:10:00.530Z,99091.78
2022-11-22T18:12:27.450Z,99095.34
2022-11-22T18:14:54.501Z,99106.50
2022-11-22T18:17:21.710Z,99094.13
2022-11-22T18:19:48.672Z,99098.47
2022-11-22T18:22:36.004Z,99104.66
2022-11-22T18:25:37.028Z,99107.13
2022-11-22T18:28:37.982Z,99115.09
2022-11-22T18:31:51.748Z,99115.78
2022-11-22T18:34:33.507Z,99120.13
2022-11-22T18:37:03.422Z,99120.16
2022-11-22T18:39:32.797Z,99114.91
2022-11-22T18:42:00.182Z,99122.84
2022-11-22T18:44:27.151Z,99123.56
2022-11-22T18:47:14.047Z,99131.28
2022-11-22T18:52:57.293Z,99142.50
2022-11-22T18:55:24.183Z,99146.91
2022-11-22T18:57:54.217Z,99143.28
2022-11-22T19:00:21.561Z,99158.09
2022-11-22T19:02:48.417Z,99157.41
2022-11-22T19:05:15.962Z,99157.41
2022-11-22T19:07:42.897Z,99164.22
2022-11-22T19:10:10.003Z,99166.06
2022-11-22T19:12:36.862Z,99167.66
2022-11-22T19:15:03.860Z,99172.88
2022-11-22T19:17:30.930Z,99178.75
2022-11-22T19:20:47.365Z,99174.59
2022-11-22T19:23:41.116Z,99179.69
2022-11-22T19:26:27.345Z,99179.59
2022-11-22T19:28:56.171Z,99175.22
2022-11-22T19:31:44.035Z,99175.13
2022-11-22T19:34:26.341Z,99181.13
2022-11-22T19:37:13.116Z,99187.06
2022-11-22T19:39:53.595Z,99185.16
2022-11-22T19:42:20.898Z,99188.66
2022-11-22T19:44:47.805Z,99183.59
2022-11-22T19:47:14.662Z,99184.44
2022-11-22T19:49:41.490Z,99161.16
2022-11-22T19:52:08.718Z,99188.50
2022-11-22T19:54:35.771Z,99189.97
2022-11-22T19:57:02.542Z,99189.03
2022-11-22T19:59:30.350Z,99185.41
2022-11-22T20:01:57.358Z,99187.19
2022-11-22T20:04:25.158Z,99182.00
2022-11-22T20:07:12.097Z,99176.34
2022-11-22T20:10:13.062Z,99178.47
2022-11-22T20:12:53.585Z,99176.88
2022-11-22T20:15:20.637Z,99174.25
2022-11-22T20:17:47.512Z,99179.44
2022-11-22T20:20:14.872Z,99172.44
2022-11-22T20:23:02.108Z,99171.41
2022-11-22T20:26:03.085Z,99174.00
2022-11-22T20:28:44.679Z,99194.91
2022-11-22T20:31:33.074Z,99202.06
2022-11-22T20:34:36.086Z,99208.06
2022-11-22T20:37:16.535Z,99209.94
2022-11-22T20:39:43.369Z,99204.72
2022-11-22T20:42:33.801Z,99200.69
2022-11-22T20:44:57.346Z,99207.22
2022-11-22T20:47:24.198Z,99205.50
2022-11-22T20:49:51.101Z,99202.69
2022-11-22T20:52:17.910Z,99200.63
2022-11-22T20:54:44.893Z,99200.06
2022-11-22T20:57:11.789Z,99198.88
2022-11-22T20:59:38.665Z,99207.28
2022-11-22T21:02:09.319Z,99208.59
2022-11-22T21:04:36.512Z,99207.88
2022-11-22T21:07:23.229Z,99213.88
2022-11-22T21:10:03.838Z,99218.97
2022-11-22T21:12:30.643Z,99226.66
2022-11-22T21:15:18.305Z,99224.22
2022-11-22T21:18:26.331Z,99227.94
2022-11-22T21:21:29.155Z,99229.50
2022-11-22T21:24:30.337Z,99234.59
2022-11-22T21:27:10.748Z,99242.22
2022-11-22T21:29:37.606Z,99244.75
2022-11-22T21:32:25.118Z,99244.13
2022-11-22T21:35:26.098Z,99257.00
2022-11-22T21:38:31.306Z,99268.13
2022-11-22T21:41:38.934Z,99272.09
2022-11-22T21:44:03.496Z,99272.81
2022-11-22T21:46:30.389Z,99277.97
2022-11-22T21:48:57.138Z,99284.56
2022-11-22T21:51:26.311Z,99280.06
2022-11-22T21:54:02.980Z,99286.34
2022-11-22T21:56:50.145Z,99286.13
2022-11-22T21:59:30.974Z,99290.56
2022-11-22T22:02:18.128Z,99292.09
2022-11-22T22:05:09.630Z,99298.66
2022-11-22T22:07:52.109Z,99303.28
2022-11-22T22:10:19.717Z,99310.88
2022-11-22T22:12:49.695Z,99312.25
2022-11-22T22:15:16.697Z,99310.97
2022-11-22T22:17:43.578Z,99312.84
2022-11-22T22:20:10.558Z,99292.63
2022-11-22T22:22:37.763Z,99309.94
2022-11-22T22:25:25.194Z,99320.41
2022-11-22T22:28:26.129Z,99324.53
2022-11-22T22:31:30.148Z,99332.75
2022-11-22T22:34:31.142Z,99334.75
2022-11-22T22:37:11.680Z,99344.44
2022-11-22T22:39:38.577Z,99344.34
2022-11-22T22:42:05.383Z,99342.81
2022-11-22T22:44:32.756Z,99346.56
2022-11-22T22:46:59.614Z,99359.06
2022-11-22T22:49:26.358Z,99358.53
2022-11-22T22:52:13.127Z,99359.72
2022-11-22T22:54:53.612Z,99379.16
2022-11-22T22:57:20.385Z,99373.41
2022-11-22T22:59:47.201Z,99383.69
2022-11-22T23:02:14.002Z,99378.88
2022-11-22T23:05:01.206Z,99395.75
2022-11-22T23:07:53.873Z,99396.63
2022-11-22T23:10:20.786Z,99396.47
2022-11-22T23:12:47.711Z,99394.53
2022-11-22T23:15:56.995Z,99392.63
2022-11-22T23:18:36.551Z,99404.75
2022-11-22T23:21:25.141Z,99411.44
2022-11-22T23:24:26.238Z,99414.44
2022-11-22T23:27:06.629Z,99417.94
2022-11-22T23:29:36.231Z,99407.88
2022-11-22T23:32:23.221Z,99414.91
2022-11-22T23:35:17.298Z,99410.38
2022-11-22T23:37:57.718Z,99425.91
2022-11-22T23:40:24.575Z,99419.84
2022-11-22T23:42:51.337Z,99433.25
2022-11-22T23:45:18.245Z,99434.34
2022-11-22T23:47:45.036Z,99428.38
2022-11-22T23:50:11.848Z,99429.59
2022-11-22T23:52:38.625Z,99432.78
2022-11-22T23:55:26.157Z,99441.53
2022-11-22T23:58:27.182Z,99441.72
